Terminal Aerodrome Forecast
Issued by NWS

Home | Current Version | Previous Version | Text Only | Print | Product List | Glossary On
Versions: 1 2 3 4 5 6 7 8 9 10 11 12
000
FTUS44 KBMX 270540
TAFTOI
TAF
KTOI 270540Z 2706/2806 14004KT P6SM SKC
     FM271500 14008KT P6SM BKN130 PROB30 2718/2720 4SM SHRA OVC040
     FM272000 16006KT P6SM BKN035 OVC060
      TEMPO 2720/2724 4SM SHRA
     FM280300 12005KT P6SM BKN025=

USA.gov is the U.S. government's official web portal to all federal, state and local government web resources and services.